Time;durP1;ratioP1;P1;durP2;ratioP2;P2;SDS_P1;SDS_P2;PMS_P1;PMS_P2;Temp;Humidity;BMP_temperature;BMP_pressure;BME280_temperature;BME280_humidity;BME280_pressure;Samples;Min_cycle;Max_cycle;Signal;HPM_P1;HPM_P2
2022/07/22 00:02:24;;;;;;;8.77;2.22;;;16.00;99.90;;;;;;5033088;28;20069;-87
2022/07/22 00:04:49;;;;;;;11.98;3.05;;;16.00;99.90;;;;;;5046201;28;20059;-83
2022/07/22 00:07:15;;;;;;;22.35;3.90;;;15.90;99.90;;;;;;5061059;28;20037;-86
2022/07/22 00:09:41;;;;;;;6.18;2.47;;;16.00;99.90;;;;;;5045272;28;20491;-87
2022/07/22 00:12:07;;;;;;;6.15;2.58;;;15.90;99.90;;;;;;5054502;28;20044;-86
2022/07/22 00:14:33;;;;;;;11.07;3.05;;;15.90;99.90;;;;;;5040070;28;20441;-87
2022/07/22 00:16:59;;;;;;;7.70;2.28;;;16.00;99.90;;;;;;5047159;28;20037;-87
2022/07/22 00:19:25;;;;;;;11.23;2.90;;;16.00;99.90;;;;;;5045546;28;20048;-87
2022/07/22 00:21:52;;;;;;;13.07;1.80;;;15.90;99.90;;;;;;5048883;28;20037;-87
2022/07/22 00:24:18;;;;;;;7.72;3.05;;;15.90;99.90;;;;;;5044010;28;20037;-88
2022/07/22 00:26:44;;;;;;;7.05;2.15;;;15.90;99.90;;;;;;5039544;28;20052;-89
2022/07/22 00:29:09;;;;;;;4.50;1.50;;;15.90;99.90;;;;;;5046556;28;20052;-88
2022/07/22 00:31:36;;;;;;;10.73;2.35;;;16.00;99.90;;;;;;5049534;28;20064;-86
2022/07/22 00:34:02;;;;;;;9.90;1.63;;;15.90;99.90;;;;;;5047780;28;20127;-86
2022/07/22 00:36:31;;;;;;;4.03;1.77;;;15.90;99.90;;;;;;5027927;28;20061;-88
2022/07/22 00:38:57;;;;;;;7.32;1.90;;;15.90;99.90;;;;;;5039756;28;20037;-85
2022/07/22 00:41:23;;;;;;;5.40;1.48;;;15.90;99.90;;;;;;5033036;28;20102;-85
2022/07/22 00:44:03;;;;;;;8.25;1.25;;;15.80;99.90;;;;;;5040231;28;20033;-85
2022/07/22 00:46:30;;;;;;;6.38;1.25;;;15.90;99.90;;;;;;5030179;28;20079;-86
2022/07/22 00:48:56;;;;;;;8.82;1.95;;;15.90;99.90;;;;;;5041647;28;20080;-86
2022/07/22 00:51:23;;;;;;;9.88;1.65;;;15.90;99.90;;;;;;5044415;28;20431;-88
2022/07/22 00:53:49;;;;;;;12.75;2.53;;;15.80;99.90;;;;;;5046054;28;20037;-84
2022/07/22 00:56:16;;;;;;;4.88;1.27;;;15.80;99.90;;;;;;5048829;28;20060;-88
2022/07/22 00:58:42;;;;;;;5.30;2.85;;;15.80;99.90;;;;;;5045108;28;20048;-86
2022/07/22 01:01:08;;;;;;;9.98;2.47;;;15.80;99.90;;;;;;5036423;28;20102;-86
2022/07/22 01:03:34;;;;;;;11.98;1.70;;;15.70;99.90;;;;;;5045193;28;20060;-86
2022/07/22 01:06:00;;;;;;;8.07;1.80;;;15.80;99.90;;;;;;5043161;28;20499;-87
2022/07/22 01:08:26;;;;;;;8.55;2.30;;;15.80;99.90;;;;;;5045047;28;20075;-86
2022/07/22 01:10:52;;;;;;;7.15;2.75;;;15.80;99.90;;;;;;5038599;28;20135;-85
2022/07/22 01:13:17;;;;;;;6.80;1.30;;;15.80;99.90;;;;;;5040230;28;20388;-84
2022/07/22 01:15:43;;;;;;;8.50;1.30;;;15.70;99.90;;;;;;5029460;28;20037;-87
2022/07/22 01:18:09;;;;;;;9.32;2.13;;;15.80;99.90;;;;;;5035914;28;20365;-88
2022/07/22 01:20:36;;;;;;;9.57;2.08;;;15.80;99.90;;;;;;5038730;28;20100;-89
2022/07/22 01:23:02;;;;;;;4.97;1.42;;;15.80;99.90;;;;;;5030550;28;20084;-87
2022/07/22 01:25:27;;;;;;;8.45;3.20;;;15.80;99.90;;;;;;5029644;28;20077;-89
2022/07/22 01:27:53;;;;;;;7.95;1.73;;;15.80;99.90;;;;;;5044029;28;20060;-85
2022/07/22 01:30:19;;;;;;;10.40;2.70;;;15.80;99.90;;;;;;5043031;28;20583;-89
2022/07/22 01:32:45;;;;;;;6.43;1.48;;;15.80;99.90;;;;;;5038555;28;20121;-87
2022/07/22 01:35:10;;;;;;;13.00;3.10;;;15.70;99.90;;;;;;5039174;28;20065;-90
2022/07/22 01:37:36;;;;;;;5.28;1.20;;;15.80;99.90;;;;;;5046035;28;20044;-89
2022/07/22 01:40:02;;;;;;;5.93;1.02;;;15.80;99.90;;;;;;5040110;28;20072;-88
2022/07/22 01:42:28;;;;;;;13.13;1.52;;;15.70;99.90;;;;;;5045296;28;20116;-89
2022/07/22 01:44:54;;;;;;;4.07;1.02;;;15.80;99.90;;;;;;5053355;22;20093;-87
2022/07/22 01:47:19;;;;;;;6.20;1.52;;;15.80;99.90;;;;;;5039626;28;20049;-88
2022/07/22 01:49:47;;;;;;;5.90;1.10;;;15.80;99.90;;;;;;5060336;28;20080;-87
2022/07/22 01:52:12;;;;;;;7.40;1.20;;;15.80;99.90;;;;;;5049634;28;20093;-86
2022/07/22 01:54:38;;;;;;;5.65;1.33;;;15.80;99.90;;;;;;5043910;28;20049;-85
2022/07/22 01:57:04;;;;;;;6.10;1.73;;;15.80;99.90;;;;;;5042932;28;20041;-87
2022/07/22 01:59:30;;;;;;;3.95;1.20;;;15.80;99.90;;;;;;5045574;28;20045;-87
2022/07/22 02:01:55;;;;;;;4.30;1.10;;;15.80;99.90;;;;;;5047704;28;20323;-87
2022/07/22 02:04:21;;;;;;;6.20;1.10;;;15.80;99.90;;;;;;5046442;28;20128;-88
2022/07/22 02:06:46;;;;;;;4.97;2.47;;;15.80;99.90;;;;;;5042247;28;20037;-87
2022/07/22 02:09:13;;;;;;;7.75;2.17;;;15.80;99.90;;;;;;5043769;28;20053;-89
2022/07/22 02:11:39;;;;;;;4.55;1.30;;;15.70;99.90;;;;;;5047044;28;20141;-83
2022/07/22 02:14:05;;;;;;;3.13;0.98;;;15.70;99.90;;;;;;5043131;28;20487;-84
2022/07/22 02:16:31;;;;;;;7.78;2.20;;;15.80;99.90;;;;;;5042866;28;20045;-84
2022/07/22 02:18:56;;;;;;;5.65;1.60;;;15.70;99.90;;;;;;5041276;28;20049;-83
2022/07/22 02:21:22;;;;;;;8.30;1.77;;;15.80;99.90;;;;;;5049582;28;20056;-85
2022/07/22 02:23:48;;;;;;;6.88;2.60;;;15.70;99.90;;;;;;5050296;28;20036;-90
2022/07/22 02:26:13;;;;;;;3.47;1.23;;;15.80;99.90;;;;;;5061698;28;20064;-86
2022/07/22 02:28:39;;;;;;;6.47;1.70;;;15.70;99.90;;;;;;5037270;28;20343;-84
2022/07/22 02:31:05;;;;;;;5.57;1.95;;;15.70;99.90;;;;;;5041737;28;20049;-84
2022/07/22 02:33:30;;;;;;;6.82;1.70;;;15.80;99.90;;;;;;5061177;28;20051;-85
2022/07/22 02:35:56;;;;;;;8.82;2.70;;;15.70;99.90;;;;;;5058365;28;20167;-84
2022/07/22 02:38:22;;;;;;;9.60;1.52;;;15.70;99.90;;;;;;5044432;28;20098;-84
2022/07/22 02:40:48;;;;;;;3.38;1.38;;;15.70;99.90;;;;;;5055144;28;20041;-84
2022/07/22 02:43:14;;;;;;;3.22;1.48;;;15.70;99.90;;;;;;5043781;28;20403;-87
2022/07/22 02:45:39;;;;;;;4.88;1.60;;;15.70;99.90;;;;;;5043120;28;20055;-85
2022/07/22 02:48:05;;;;;;;11.40;2.33;;;15.80;99.90;;;;;;5040971;28;20073;-86
2022/07/22 02:50:32;;;;;;;9.02;3.05;;;15.70;99.90;;;;;;5062351;28;20044;-86
2022/07/22 02:52:58;;;;;;;25.58;2.20;;;15.70;99.90;;;;;;5050505;28;20530;-86
2022/07/22 02:55:24;;;;;;;5.90;1.25;;;15.70;99.90;;;;;;5049526;28;20045;-90
2022/07/22 02:57:50;;;;;;;6.70;1.83;;;15.70;99.90;;;;;;5043058;28;20045;-87
2022/07/22 03:00:16;;;;;;;6.43;1.50;;;15.70;99.90;;;;;;5041489;28;20131;-85
2022/07/22 03:02:43;;;;;;;11.05;2.90;;;15.70;99.90;;;;;;5052055;28;20106;-86
2022/07/22 03:05:09;;;;;;;6.72;1.92;;;15.80;99.90;;;;;;5047002;28;20358;-86
2022/07/22 03:07:34;;;;;;;6.82;1.00;;;15.70;99.90;;;;;;5049272;28;20044;-88
2022/07/22 03:10:00;;;;;;;6.60;1.98;;;15.70;99.90;;;;;;5042733;28;20049;-87
2022/07/22 03:12:26;;;;;;;8.30;1.50;;;15.70;99.90;;;;;;5045130;28;20056;-87
2022/07/22 03:14:52;;;;;;;7.70;1.95;;;15.70;99.90;;;;;;5049175;28;20045;-87
2022/07/22 03:17:17;;;;;;;6.53;1.45;;;15.80;99.90;;;;;;5053450;28;20064;-88
2022/07/22 03:19:43;;;;;;;8.07;1.77;;;15.70;99.90;;;;;;5048625;28;20132;-87
2022/07/22 03:22:10;;;;;;;3.63;1.30;;;15.70;99.90;;;;;;5044122;28;20158;-87
2022/07/22 03:24:35;;;;;;;5.45;1.02;;;15.70;99.90;;;;;;5048845;28;20059;-87
2022/07/22 03:27:01;;;;;;;3.72;2.38;;;15.70;99.90;;;;;;5045465;28;20037;-86
2022/07/22 03:29:26;;;;;;;6.20;1.13;;;15.70;99.90;;;;;;5047597;28;20048;-87
2022/07/22 03:31:52;;;;;;;7.97;2.00;;;15.70;99.90;;;;;;5048200;28;20049;-87
2022/07/22 03:34:18;;;;;;;4.20;1.13;;;15.70;99.90;;;;;;5050144;28;20090;-87
2022/07/22 03:36:43;;;;;;;6.50;1.38;;;15.70;99.90;;;;;;5055696;28;20037;-88
2022/07/22 03:39:09;;;;;;;5.50;1.77;;;15.80;99.90;;;;;;5047017;28;20045;-86
2022/07/22 03:41:34;;;;;;;5.03;1.27;;;15.70;99.90;;;;;;5049984;28;20476;-87
2022/07/22 03:44:00;;;;;;;4.70;1.50;;;15.70;99.90;;;;;;5044128;28;20045;-87
2022/07/22 03:46:26;;;;;;;5.00;1.50;;;15.70;99.90;;;;;;5054253;28;20105;-87
2022/07/22 03:48:51;;;;;;;8.85;1.45;;;15.70;99.90;;;;;;5052825;28;20442;-87
2022/07/22 03:51:17;;;;;;;6.25;1.40;;;15.70;99.90;;;;;;5029921;28;20053;-87
2022/07/22 03:53:43;;;;;;;5.38;1.65;;;15.70;99.90;;;;;;5048019;28;20091;-87
2022/07/22 03:56:08;;;;;;;8.30;2.47;;;15.60;99.90;;;;;;5059585;28;20450;-84
2022/07/22 03:58:34;;;;;;;6.57;1.25;;;15.60;99.90;;;;;;5071504;28;20021;-87
2022/07/22 04:01:00;;;;;;;7.38;1.70;;;15.60;99.90;;;;;;5062502;28;20039;-86
2022/07/22 04:03:26;;;;;;;3.95;1.52;;;15.70;99.90;;;;;;5059562;28;20103;-87
2022/07/22 04:05:51;;;;;;;7.63;2.05;;;15.60;99.90;;;;;;5049382;28;20120;-87
2022/07/22 04:08:17;;;;;;;4.40;1.27;;;15.60;99.90;;;;;;5049413;28;20037;-88
2022/07/22 04:10:44;;;;;;;14.70;2.60;;;15.60;99.90;;;;;;5044373;28;20048;-87
2022/07/22 04:13:10;;;;;;;10.35;2.50;;;15.70;99.90;;;;;;5047326;28;20037;-87
2022/07/22 04:15:36;;;;;;;3.55;2.08;;;15.60;99.90;;;;;;5057696;28;20045;-87
2022/07/22 04:18:01;;;;;;;8.05;1.73;;;15.50;99.90;;;;;;5056206;28;20075;-87
2022/07/22 04:20:27;;;;;;;4.95;1.60;;;15.60;99.90;;;;;;5051480;28;20483;-87
2022/07/22 04:22:53;;;;;;;3.55;1.60;;;15.60;99.90;;;;;;5063689;28;20029;-87
2022/07/22 04:25:19;;;;;;;5.30;1.40;;;15.60;99.90;;;;;;5053420;28;20515;-77
2022/07/22 04:27:44;;;;;;;19.95;3.38;;;15.60;99.90;;;;;;5048662;28;20037;-87
2022/07/22 04:30:10;;;;;;;5.28;1.13;;;15.60;99.90;;;;;;5049795;28;20045;-88
2022/07/22 04:32:36;;;;;;;8.82;2.25;;;15.60;99.90;;;;;;5053122;28;20036;-89
2022/07/22 04:35:02;;;;;;;3.20;0.93;;;15.60;99.90;;;;;;5044228;28;20068;-87
2022/07/22 04:37:28;;;;;;;6.80;2.03;;;15.50;99.90;;;;;;5051622;28;20094;-87
2022/07/22 04:39:54;;;;;;;8.13;1.33;;;15.60;99.90;;;;;;5042754;28;20037;-87
2022/07/22 04:42:19;;;;;;;3.58;1.38;;;15.70;99.90;;;;;;5039473;28;20726;-88
2022/07/22 04:44:45;;;;;;;7.55;1.60;;;15.70;99.90;;;;;;5045197;28;20037;-88
2022/07/22 04:47:11;;;;;;;2.53;0.90;;;15.60;99.90;;;;;;5048831;28;20454;-88
2022/07/22 04:49:37;;;;;;;4.35;1.40;;;15.60;99.90;;;;;;5045201;28;20045;-87
2022/07/22 04:52:03;;;;;;;5.18;1.25;;;15.60;99.90;;;;;;5045626;28;20498;-87
2022/07/22 04:54:29;;;;;;;5.45;1.40;;;15.70;99.90;;;;;;5037793;28;20060;-87
2022/07/22 04:56:54;;;;;;;7.65;1.65;;;15.70;99.90;;;;;;5046029;28;20047;-87
2022/07/22 04:59:20;;;;;;;6.75;1.95;;;15.80;99.90;;;;;;5046356;28;20063;-88
2022/07/22 05:01:46;;;;;;;4.35;1.88;;;15.70;99.90;;;;;;5029224;28;20049;-87
2022/07/22 05:04:11;;;;;;;6.38;1.42;;;15.70;99.90;;;;;;5049762;28;20154;-84
2022/07/22 05:06:37;;;;;;;6.18;1.80;;;15.80;99.90;;;;;;5052442;28;20041;-89
2022/07/22 05:09:03;;;;;;;5.20;1.42;;;15.80;99.90;;;;;;5059183;28;20039;-88
2022/07/22 05:11:29;;;;;;;5.68;1.27;;;15.80;99.90;;;;;;5045011;28;20041;-88
2022/07/22 05:13:54;;;;;;;5.78;1.65;;;15.80;99.90;;;;;;5064073;28;20483;-88
2022/07/22 05:16:20;;;;;;;6.18;1.83;;;15.80;99.90;;;;;;5042540;28;20033;-87
2022/07/22 05:18:45;;;;;;;5.47;2.80;;;15.80;99.90;;;;;;5045544;28;20052;-87
2022/07/22 05:21:11;;;;;;;5.65;1.40;;;15.80;99.90;;;;;;5063138;28;20495;-87
2022/07/22 05:23:37;;;;;;;4.75;1.02;;;15.80;99.90;;;;;;5047639;28;20076;-88
2022/07/22 05:26:04;;;;;;;6.75;1.85;;;15.80;99.90;;;;;;5045605;28;20064;-88
2022/07/22 05:28:30;;;;;;;8.02;1.88;;;15.80;99.90;;;;;;5062639;28;20064;-87
2022/07/22 05:30:56;;;;;;;6.55;1.70;;;15.80;99.90;;;;;;5044883;28;20080;-87
2022/07/22 05:33:21;;;;;;;4.65;1.10;;;15.80;99.90;;;;;;5067606;28;20041;-88
2022/07/22 05:35:47;;;;;;;7.50;1.77;;;15.90;99.90;;;;;;5047361;28;20037;-87
2022/07/22 05:38:13;;;;;;;6.47;1.23;;;15.90;99.90;;;;;;5051925;28;20036;-88
2022/07/22 05:40:38;;;;;;;4.53;1.27;;;15.90;99.90;;;;;;5046900;28;20048;-87
2022/07/22 05:43:04;;;;;;;6.50;1.15;;;16.10;99.90;;;;;;5045450;28;20403;-89
2022/07/22 05:45:30;;;;;;;6.47;2.47;;;16.10;99.90;;;;;;5043062;28;20064;-88
2022/07/22 05:47:56;;;;;;;5.10;1.13;;;16.00;99.90;;;;;;5043407;28;20281;-88
2022/07/22 05:50:21;;;;;;;7.57;1.00;;;16.00;99.90;;;;;;5010321;28;20049;-89
2022/07/22 05:52:47;;;;;;;7.18;1.17;;;16.20;99.90;;;;;;5048140;28;20120;-89
2022/07/22 05:55:12;;;;;;;7.05;1.45;;;16.20;99.90;;;;;;5061872;28;20128;-87
2022/07/22 05:57:38;;;;;;;9.57;1.73;;;16.10;99.90;;;;;;5045732;28;20037;-88
2022/07/22 06:00:05;;;;;;;4.82;1.00;;;16.20;99.90;;;;;;5045263;28;20037;-87
2022/07/22 06:02:31;;;;;;;5.50;1.10;;;16.20;99.90;;;;;;5041515;28;20045;-86
2022/07/22 06:04:58;;;;;;;4.88;1.33;;;16.20;99.90;;;;;;5047852;28;20041;-89
2022/07/22 06:07:25;;;;;;;7.45;1.10;;;16.20;99.90;;;;;;5035587;28;20037;-81
2022/07/22 06:09:51;;;;;;;7.30;1.25;;;16.20;99.90;;;;;;5044845;28;20421;-81
2022/07/22 06:12:16;;;;;;;3.58;1.45;;;16.20;99.90;;;;;;5058114;28;20033;-82
2022/07/22 06:14:42;;;;;;;10.80;1.88;;;16.20;99.90;;;;;;5041069;28;20106;-83
2022/07/22 06:17:07;;;;;;;26.60;4.55;;;16.20;99.90;;;;;;5045121;28;20041;-82
2022/07/22 06:19:33;;;;;;;5.97;1.45;;;16.30;99.90;;;;;;5040421;28;20045;-80
2022/07/22 06:21:59;;;;;;;5.57;1.80;;;16.30;99.90;;;;;;5025825;28;20056;-80
2022/07/22 06:24:25;;;;;;;3.83;1.25;;;16.30;99.90;;;;;;5040528;28;20040;-79
2022/07/22 06:26:51;;;;;;;8.70;1.35;;;16.30;99.90;;;;;;5041276;28;20045;-77
2022/07/22 06:29:16;;;;;;;5.95;1.98;;;16.30;99.90;;;;;;5041859;28;20041;-78
2022/07/22 06:31:42;;;;;;;7.10;1.25;;;16.40;99.90;;;;;;5041680;28;20549;-78
2022/07/22 06:34:08;;;;;;;8.70;1.95;;;16.30;99.90;;;;;;5042385;28;20505;-75
2022/07/22 06:36:33;;;;;;;7.32;1.55;;;16.30;99.90;;;;;;5042363;28;20114;-77
2022/07/22 06:38:59;;;;;;;7.82;1.80;;;16.30;99.90;;;;;;5041496;28;20095;-76
2022/07/22 06:41:25;;;;;;;5.28;1.95;;;16.30;99.90;;;;;;5048085;28;20041;-78
2022/07/22 06:43:51;;;;;;;4.75;1.60;;;16.40;99.90;;;;;;5045349;28;20391;-77
2022/07/22 06:46:17;;;;;;;2.53;1.05;;;16.30;99.90;;;;;;5048488;28;20060;-77
2022/07/22 06:48:43;;;;;;;4.78;1.52;;;16.40;99.90;;;;;;5049936;28;20053;-77
2022/07/22 06:51:09;;;;;;;4.95;1.42;;;16.50;99.90;;;;;;5047187;28;20056;-77
2022/07/22 06:53:34;;;;;;;6.85;1.40;;;16.50;99.90;;;;;;5047134;28;20403;-77
2022/07/22 06:56:00;;;;;;;6.32;1.58;;;16.60;99.90;;;;;;5046456;28;20141;-77
2022/07/22 06:58:26;;;;;;;8.63;1.58;;;16.60;99.90;;;;;;5049040;28;20082;-75
2022/07/22 07:00:51;;;;;;;4.32;1.15;;;16.60;99.90;;;;;;5047325;28;20037;-75
2022/07/22 07:03:17;;;;;;;5.57;1.42;;;16.60;99.90;;;;;;5045269;28;20450;-76
2022/07/22 07:05:43;;;;;;;4.13;1.60;;;16.70;99.90;;;;;;5047922;28;20522;-78
2022/07/22 07:08:09;;;;;;;9.80;1.23;;;16.70;99.90;;;;;;5045177;28;20044;-77
2022/07/22 07:10:34;;;;;;;7.30;1.60;;;16.80;99.90;;;;;;5042151;28;20488;-76
2022/07/22 07:13:00;;;;;;;9.75;1.45;;;16.70;99.90;;;;;;5046217;28;20041;-75
2022/07/22 07:15:26;;;;;;;8.93;1.50;;;16.70;99.90;;;;;;5046311;28;20052;-76
2022/07/22 07:17:54;;;;;;;4.40;0.80;;;16.80;99.90;;;;;;5046639;28;20049;-78
2022/07/22 07:20:20;;;;;;;7.70;1.25;;;16.80;99.90;;;;;;5047247;28;20037;-78
2022/07/22 07:22:46;;;;;;;3.47;1.13;;;16.80;99.90;;;;;;5046654;28;20498;-76
2022/07/22 07:25:12;;;;;;;6.63;1.05;;;16.80;99.90;;;;;;5043106;28;20033;-78
2022/07/22 07:27:38;;;;;;;9.45;1.52;;;16.80;99.90;;;;;;5043376;28;20044;-79
2022/07/22 07:30:05;;;;;;;7.00;1.13;;;16.90;99.90;;;;;;5044465;28;20052;-79
2022/07/22 07:32:31;;;;;;;11.60;1.08;;;17.00;99.90;;;;;;5044593;28;20061;-79
2022/07/22 07:34:56;;;;;;;3.63;1.77;;;17.10;99.90;;;;;;5044721;28;20045;-79
2022/07/22 07:37:22;;;;;;;7.68;2.38;;;17.10;99.90;;;;;;5046796;28;20052;-78
2022/07/22 07:39:48;;;;;;;3.50;1.13;;;17.00;99.90;;;;;;5045868;28;20124;-79
2022/07/22 07:42:13;;;;;;;9.63;2.00;;;17.10;99.90;;;;;;5058511;28;20136;-79
2022/07/22 07:44:39;;;;;;;5.50;0.93;;;17.20;99.90;;;;;;5047374;28;20053;-80
2022/07/22 07:47:05;;;;;;;5.15;1.17;;;17.20;99.90;;;;;;5043812;28;20119;-78
2022/07/22 07:49:30;;;;;;;11.60;1.60;;;17.20;99.90;;;;;;5045734;28;20170;-79
2022/07/22 07:51:56;;;;;;;4.00;1.23;;;17.20;99.90;;;;;;5047016;28;20557;-79
2022/07/22 07:54:22;;;;;;;5.68;0.80;;;17.20;99.90;;;;;;5061843;28;20462;-84
2022/07/22 07:56:49;;;;;;;5.50;2.08;;;17.10;99.90;;;;;;5040438;28;20068;-73
2022/07/22 07:59:16;;;;;;;3.88;1.15;;;17.10;99.90;;;;;;5044845;28;20569;-81
2022/07/22 08:01:42;;;;;;;6.07;1.75;;;17.10;99.90;;;;;;5046231;28;20051;-81
2022/07/22 08:04:08;;;;;;;5.57;1.48;;;17.10;99.90;;;;;;5044991;28;20510;-81
2022/07/22 08:06:33;;;;;;;3.10;0.95;;;17.00;99.90;;;;;;5044643;28;20037;-82
2022/07/22 08:08:59;;;;;;;4.32;0.80;;;16.90;99.90;;;;;;5046271;28;20414;-81
2022/07/22 08:11:25;;;;;;;3.00;1.00;;;16.90;99.90;;;;;;5044189;28;20041;-82
2022/07/22 08:13:50;;;;;;;10.63;1.40;;;16.80;99.90;;;;;;5043259;28;20424;-83
2022/07/22 08:16:16;;;;;;;3.53;0.80;;;16.80;99.90;;;;;;5045944;28;20052;-82
2022/07/22 08:18:42;;;;;;;2.22;0.55;;;16.80;99.90;;;;;;5029760;28;20037;-82
2022/07/22 08:21:08;;;;;;;2.50;0.70;;;16.80;99.90;;;;;;5045350;28;20041;-83
2022/07/22 08:23:34;;;;;;;10.65;1.85;;;16.70;99.90;;;;;;5045937;28;20487;-84
2022/07/22 08:25:59;;;;;;;3.47;0.70;;;16.70;99.90;;;;;;5044212;28;20128;-84
2022/07/22 08:28:25;;;;;;;4.40;1.48;;;16.80;99.90;;;;;;5047654;28;20575;-85
2022/07/22 08:30:52;;;;;;;3.38;1.13;;;16.80;99.90;;;;;;5044291;28;20047;-84
2022/07/22 08:33:17;;;;;;;4.10;1.50;;;16.90;99.90;;;;;;5048188;28;20041;-84
2022/07/22 08:35:43;;;;;;;5.30;2.03;;;16.90;99.90;;;;;;5048285;28;20051;-80
2022/07/22 08:38:09;;;;;;;1.42;0.40;;;17.00;99.90;;;;;;5044224;28;20055;-81
2022/07/22 08:40:34;;;;;;;4.63;1.30;;;17.10;99.90;;;;;;5045739;28;20522;-82
2022/07/22 08:43:02;;;;;;;4.50;0.60;;;17.10;99.90;;;;;;5045431;28;20476;-81
2022/07/22 08:45:31;;;;;;;6.97;0.80;;;17.20;99.90;;;;;;5045076;28;20110;-79
2022/07/22 08:47:59;;;;;;;5.53;0.50;;;17.20;99.90;;;;;;5059313;28;20147;-80
2022/07/22 08:50:25;;;;;;;3.55;0.40;;;17.30;99.90;;;;;;5042700;28;20486;-80
2022/07/22 08:52:51;;;;;;;3.40;0.40;;;17.40;99.90;;;;;;5044757;28;20044;-80
2022/07/22 08:55:17;;;;;;;6.38;1.05;;;17.50;99.90;;;;;;5047201;28;20049;-79
2022/07/22 08:57:46;;;;;;;15.05;2.33;;;17.50;99.90;;;;;;5045967;28;20125;-80
2022/07/22 09:00:19;;;;;;;1.38;0.73;;;17.50;99.90;;;;;;5042162;28;20044;-81
2022/07/22 09:02:45;;;;;;;12.43;3.67;;;17.40;99.90;;;;;;5043769;28;20107;-76
2022/07/22 09:05:14;;;;;;;3.47;0.55;;;17.40;99.90;;;;;;5041801;28;20045;-83
2022/07/22 09:07:43;;;;;;;3.58;0.98;;;17.40;99.90;;;;;;5039453;28;20084;-84
2022/07/22 09:10:17;;;;;;;1.63;0.40;;;17.50;99.90;;;;;;5025449;28;20140;-85
2022/07/22 09:12:59;;;;;;;3.10;1.05;;;17.60;99.90;;;;;;5032234;28;20288;-85
2022/07/22 09:15:32;;;;;;;3.40;0.95;;;17.50;99.90;;;;;;5046725;28;20121;-84
2022/07/22 09:17:59;;;;;;;2.83;0.30;;;17.50;99.90;;;;;;5039623;28;20419;-84
2022/07/22 09:20:26;;;;;;;4.00;0.60;;;17.60;99.90;;;;;;5046042;28;20471;-85
2022/07/22 09:22:53;;;;;;;7.05;1.23;;;17.50;99.90;;;;;;5042830;28;20143;-85
2022/07/22 09:25:28;;;;;;;3.33;0.82;;;17.50;99.90;;;;;;5047605;28;20407;-84
2022/07/22 09:28:04;;;;;;;0.52;0.30;;;17.50;99.90;;;;;;5054807;28;20048;-84
2022/07/22 09:30:30;;;;;;;1.50;0.50;;;17.40;99.90;;;;;;5044981;28;20045;-83
2022/07/22 09:32:56;;;;;;;2.35;0.52;;;17.40;99.90;;;;;;5067319;28;20089;-84
2022/07/22 09:35:22;;;;;;;2.80;0.20;;;17.50;99.90;;;;;;5052595;28;20047;-86
2022/07/22 09:38:01;;;;;;;1.63;0.57;;;17.60;99.90;;;;;;5047159;28;20106;-82
2022/07/22 09:40:28;;;;;;;2.13;0.88;;;17.60;99.90;;;;;;5026987;28;20497;-86
2022/07/22 09:42:57;;;;;;;1.02;0.40;;;17.70;99.90;;;;;;5041314;28;20041;-85
2022/07/22 09:45:25;;;;;;;3.65;1.30;;;17.80;99.90;;;;;;5044298;28;20048;-85
2022/07/22 09:47:53;;;;;;;3.10;0.40;;;17.80;99.90;;;;;;5045055;28;20080;-84
2022/07/22 09:50:30;;;;;;;0.32;0.30;;;17.80;99.90;;;;;;5042641;28;20037;-75
2022/07/22 09:52:57;;;;;;;0.47;0.40;;;17.90;99.90;;;;;;5047093;28;20388;-86
2022/07/22 09:55:25;;;;;;;1.88;0.30;;;18.00;99.90;;;;;;5044662;28;20407;-83
2022/07/22 09:57:53;;;;;;;1.85;0.50;;;18.00;99.90;;;;;;5042314;28;20041;-87
2022/07/22 10:00:21;;;;;;;0.60;0.25;;;17.90;99.90;;;;;;5046827;28;20049;-81
2022/07/22 10:03:03;;;;;;;2.53;0.95;;;17.90;99.90;;;;;;5042609;28;20078;-85
2022/07/22 10:05:35;;;;;;;2.33;0.47;;;17.80;99.90;;;;;;5045712;28;20098;-86
2022/07/22 10:08:03;;;;;;;2.47;0.50;;;17.80;99.90;;;;;;5046351;28;20037;-86
2022/07/22 10:10:30;;;;;;;2.15;0.63;;;17.80;99.90;;;;;;5039964;28;20103;-86
2022/07/22 10:12:58;;;;;;;6.38;1.33;;;18.00;99.90;;;;;;5036905;28;20041;-87
2022/07/22 10:15:25;;;;;;;3.65;0.47;;;18.00;99.90;;;;;;5049214;28;20084;-85
2022/07/22 10:17:53;;;;;;;2.35;0.70;;;18.20;99.90;;;;;;5051457;28;20041;-85
2022/07/22 10:20:23;;;;;;;1.50;0.95;;;18.20;99.90;;;;;;5043744;28;20086;-84
2022/07/22 10:22:55;;;;;;;3.35;0.57;;;18.20;99.90;;;;;;5046935;28;20064;-80
2022/07/22 10:25:24;;;;;;;8.68;0.95;;;18.20;99.90;;;;;;5051161;28;20044;-86
2022/07/22 10:27:57;;;;;;;2.37;0.40;;;18.20;99.90;;;;;;5047725;28;20407;-82
2022/07/22 10:30:34;;;;;;;0.93;0.57;;;18.10;99.90;;;;;;5063890;28;20669;-86
2022/07/22 10:33:07;;;;;;;2.13;0.40;;;18.20;99.90;;;;;;5047707;28;20048;-86
2022/07/22 10:35:34;;;;;;;1.80;0.50;;;18.40;99.90;;;;;;5058192;28;20037;-86
2022/07/22 10:38:03;;;;;;;2.10;0.60;;;18.50;99.90;;;;;;5048347;28;20483;-85
2022/07/22 10:40:31;;;;;;;2.85;0.40;;;18.50;99.90;;;;;;5044829;28;20040;-86
2022/07/22 10:43:00;;;;;;;2.55;0.43;;;18.40;99.90;;;;;;5053871;28;20037;-85
2022/07/22 10:45:45;;;;;;;1.10;0.50;;;18.70;99.90;;;;;;5052777;28;20448;-84
2022/07/22 10:48:37;;;;;;;2.40;0.40;;;18.80;99.90;;;;;;5030420;28;20045;-83
2022/07/22 10:51:10;;;;;;;2.03;0.57;;;19.00;99.90;;;;;;5018378;28;20079;-82
2022/07/22 10:53:53;;;;;;;3.33;0.30;;;19.20;99.90;;;;;;5047893;28;20463;-82
2022/07/22 10:56:35;;;;;;;1.30;0.38;;;19.10;99.90;;;;;;5049658;28;20068;-75
2022/07/22 10:59:15;;;;;;;0.95;0.40;;;19.20;99.90;;;;;;5045129;28;20495;-83
2022/07/22 11:01:53;;;;;;;0.87;0.40;;;19.10;99.90;;;;;;5043634;28;20114;-82
2022/07/22 11:04:26;;;;;;;2.28;0.38;;;18.80;99.90;;;;;;5046635;28;20303;-81
2022/07/22 11:06:55;;;;;;;2.30;0.30;;;18.90;99.90;;;;;;5049356;28;20083;-82
2022/07/22 11:09:23;;;;;;;2.00;0.47;;;18.80;99.90;;;;;;5046021;28;20460;-80
2022/07/22 11:11:54;;;;;;;1.83;0.43;;;18.60;99.90;;;;;;5043869;28;20083;-82
2022/07/22 11:14:21;;;;;;;2.55;0.60;;;18.70;99.90;;;;;;5031971;28;20124;-82
2022/07/22 11:16:49;;;;;;;3.40;0.57;;;18.60;99.90;;;;;;5040326;28;20068;-81
2022/07/22 11:19:19;;;;;;;3.00;0.65;;;18.70;99.90;;;;;;5048329;28;20048;-82
2022/07/22 11:21:52;;;;;;;3.55;0.43;;;18.60;99.90;;;;;;5047701;28;20040;-82
2022/07/22 11:24:18;;;;;;;5.57;0.47;;;18.50;99.90;;;;;;5043832;28;20400;-82
2022/07/22 11:26:51;;;;;;;3.65;0.52;;;18.40;99.90;;;;;;5049806;28;20049;-81
2022/07/22 11:29:39;;;;;;;2.83;0.60;;;18.30;99.90;;;;;;5038886;28;20055;-80
2022/07/22 11:32:08;;;;;;;0.38;0.30;;;18.40;99.90;;;;;;5054364;28;20303;-82
2022/07/22 11:34:36;;;;;;;0.95;0.47;;;18.40;99.90;;;;;;5056991;28;20044;-83
2022/07/22 11:37:02;;;;;;;1.85;0.30;;;18.40;99.90;;;;;;5057564;28;20033;-82
2022/07/22 11:39:36;;;;;;;1.30;0.57;;;18.40;99.90;;;;;;5059128;28;20056;-84
2022/07/22 11:42:05;;;;;;;1.15;0.22;;;18.40;99.90;;;;;;5058280;28;20033;-80
2022/07/22 11:44:37;;;;;;;0.65;0.10;;;18.40;99.90;;;;;;5055791;28;20052;-80
2022/07/22 11:47:05;;;;;;;0.20;0.20;;;18.40;99.90;;;;;;5056483;28;20057;-80
2022/07/22 11:49:36;;;;;;;1.35;0.35;;;18.30;99.90;;;;;;5045594;28;20428;-84
2022/07/22 11:52:04;;;;;;;3.05;0.47;;;18.30;99.90;;;;;;5034694;28;20385;-83
2022/07/22 11:54:29;;;;;;;2.70;0.40;;;18.20;99.90;;;;;;5047470;28;20067;-85
2022/07/22 11:56:56;;;;;;;1.63;0.40;;;18.10;99.90;;;;;;5049064;28;20506;-82
2022/07/22 11:59:22;;;;;;;2.63;0.20;;;18.20;99.90;;;;;;5041420;28;20041;-82
2022/07/22 12:01:48;;;;;;;0.60;0.22;;;18.20;99.90;;;;;;5042775;28;20044;-82
2022/07/22 12:04:21;;;;;;;2.25;0.47;;;18.30;99.90;;;;;;5047018;28;20037;-82
2022/07/22 12:06:47;;;;;;;1.45;0.45;;;18.30;99.90;;;;;;5048562;28;20045;-82
2022/07/22 12:09:37;;;;;;;4.57;0.30;;;18.50;99.90;;;;;;5047950;28;20040;-82
2022/07/22 12:12:04;;;;;;;11.10;1.27;;;18.60;99.90;;;;;;5045338;28;20045;-83
2022/07/22 12:14:32;;;;;;;1.80;0.52;;;18.60;99.90;;;;;;5070282;28;20140;-83
2022/07/22 12:17:06;;;;;;;3.65;1.05;;;18.80;99.90;;;;;;5071019;28;20028;-82
2022/07/22 12:19:34;;;;;;;1.15;0.40;;;18.60;99.90;;;;;;5058636;28;20036;-82
2022/07/22 12:22:06;;;;;;;0.43;0.30;;;18.70;99.90;;;;;;5049649;28;20052;-82
2022/07/22 12:24:37;;;;;;;0.40;0.25;;;18.70;99.90;;;;;;5050407;28;20043;-81
2022/07/22 12:27:08;;;;;;;6.43;0.55;;;18.60;99.90;;;;;;5050587;28;20099;-81
2022/07/22 12:29:36;;;;;;;1.52;0.80;;;18.90;99.90;;;;;;5051511;28;20068;-80
2022/07/22 12:32:07;;;;;;;11.88;1.58;;;19.00;99.90;;;;;;5052064;28;20070;-81
2022/07/22 12:34:55;;;;;;;1.95;0.60;;;19.10;99.90;;;;;;5047112;28;20037;-83
2022/07/22 12:37:22;;;;;;;0.80;0.40;;;19.20;99.90;;;;;;5048961;28;20059;-81
2022/07/22 12:40:04;;;;;;;1.52;0.60;;;19.30;99.90;;;;;;5052202;28;20061;-81
2022/07/22 12:42:32;;;;;;;1.17;0.35;;;19.30;99.90;;;;;;5052222;28;20053;-83
2022/07/22 12:45:25;;;;;;;3.80;0.50;;;19.00;99.90;;;;;;5055702;28;20041;-84
2022/07/22 12:47:57;;;;;;;2.10;0.93;;;18.90;99.90;;;;;;5047294;28;20554;-85